Ana Sayfa
METAR-TAF:

METAR-TAF

Havaalanları :

York Airport

York, Pensilvanya, Amerika Birleşik Devletleri

Enlem: 39-55-10N, Boylam: 076-52-37W, yükseklik: 146 m

Güncel hava durumu gözlemi

Rapor saat 08:53 UTC de 47 dakika önce yapıldı.
Sakin rüzgar
Sıcaklık 7°C
Nem 70%
Basınç 1011 hPa
Görüş mesafesi: 16.1 km
6500 ft yükseklikte çok bulutlu

METAR: KTHV 250853Z AUTO 00000KT 10SM OVC065 07/02 A2986 RMK AO2 SLP115 T00670022 58002

Saat: 04:40 (09:40 UTC)


TAF: eksik

4.000'den fazla havaalanı için hava durumu gözlemleri ve tahminleri (METAR ve TAF raporları).

Kullanılabilir istasyonlar harita üzerinde sarı ve kırmızı noktalarla gösterilir.

İstasyonun adını görmek için fareyi noktanın üzerinde gezdirin.

Sonrasında hava gözlem ve tahminlerini görmek için tıklayın.

Haritayı değiştirmek için: yaklaştırmak için siyah artı işaretli yeşil düğmeye ve uzaklaştırmak için de eksi işaretli düğmeye hızla tıklayın; bitişik haritalar için yeşil okları kullanın.


METAR-TAF: